createdAt,value
2023-04-27T00:00:31.062Z,26.13
2023-04-27T00:01:31.057Z,26.13
2023-04-27T00:02:31.227Z,26.15
2023-04-27T00:03:31.304Z,26.15
2023-04-27T00:04:31.318Z,26.13
2023-04-27T00:05:34.340Z,26.15
2023-04-27T00:06:31.122Z,26.16
2023-04-27T00:07:31.196Z,26.13
2023-04-27T00:08:31.105Z,26.13
2023-04-27T00:09:31.115Z,26.16
2023-04-27T00:10:31.114Z,26.15
2023-04-27T00:11:31.087Z,26.16
2023-04-27T00:12:31.087Z,26.15
2023-04-27T00:13:31.108Z,26.15
2023-04-27T00:14:31.088Z,26.15
2023-04-27T00:15:31.066Z,26.16
2023-04-27T00:16:31.790Z,26.15
2023-04-27T00:17:31.128Z,26.17
2023-04-27T00:18:31.072Z,26.16
2023-04-27T00:19:31.039Z,26.17
2023-04-27T00:20:31.028Z,26.17
2023-04-27T00:21:31.044Z,26.17
2023-04-27T00:22:31.011Z,26.20
2023-04-27T00:23:30.997Z,26.19
2023-04-27T00:24:31.029Z,26.19
2023-04-27T00:25:31.016Z,26.19
2023-04-27T00:26:30.982Z,26.17
2023-04-27T00:27:30.983Z,26.17
2023-04-27T00:28:30.976Z,26.19
2023-04-27T00:29:30.959Z,26.17
2023-04-27T00:30:30.957Z,26.16
2023-04-27T00:31:30.972Z,26.17
2023-04-27T00:32:30.970Z,26.17
2023-04-27T00:33:30.975Z,26.19
2023-04-27T00:34:31.001Z,26.19
2023-04-27T00:35:30.930Z,26.20
2023-04-27T00:36:30.908Z,26.19
2023-04-27T00:37:30.951Z,26.22
2023-04-27T00:38:30.932Z,26.19
2023-04-27T00:39:30.891Z,26.19
2023-04-27T00:40:30.880Z,26.20
2023-04-27T00:41:30.922Z,26.19
2023-04-27T00:42:30.920Z,26.20
2023-04-27T00:43:30.875Z,26.22
2023-04-27T00:44:30.865Z,26.22
2023-04-27T00:45:30.895Z,26.19
2023-04-27T00:46:30.958Z,26.22
2023-04-27T00:47:30.928Z,26.20
2023-04-27T00:48:30.885Z,26.20
2023-04-27T00:49:30.815Z,26.22
2023-04-27T00:50:30.870Z,26.20
2023-04-27T00:51:30.842Z,26.19
2023-04-27T00:52:30.807Z,26.20
2023-04-27T00:53:30.798Z,26.20
2023-04-27T00:54:30.815Z,26.20
2023-04-27T00:55:30.801Z,26.22
2023-04-27T00:56:30.812Z,26.22
2023-04-27T00:57:30.808Z,26.24
2023-04-27T00:58:30.782Z,26.23
2023-04-27T00:59:30.751Z,26.22
2023-04-27T01:00:31.739Z,26.23
2023-04-27T01:01:30.794Z,26.23
2023-04-27T01:02:30.860Z,26.24
2023-04-27T01:03:30.859Z,26.27
2023-04-27T01:04:30.948Z,26.24
2023-04-27T01:05:32.473Z,26.24
2023-04-27T01:06:30.725Z,26.24
2023-04-27T01:07:30.735Z,26.24
2023-04-27T01:08:30.758Z,26.24
2023-04-27T01:09:30.731Z,26.24
2023-04-27T01:10:30.697Z,26.24
2023-04-27T01:11:30.701Z,26.23
2023-04-27T01:12:30.734Z,26.26
2023-04-27T01:13:30.663Z,26.26
2023-04-27T01:14:30.671Z,26.26
2023-04-27T01:15:30.761Z,26.24
2023-04-27T01:16:31.312Z,26.24
2023-04-27T01:17:30.700Z,26.27
2023-04-27T01:18:30.671Z,26.26
2023-04-27T01:19:30.710Z,26.26
2023-04-27T01:20:30.680Z,26.26
2023-04-27T01:21:30.659Z,26.24
2023-04-27T01:22:30.615Z,26.26
2023-04-27T01:23:30.610Z,26.26
2023-04-27T01:24:30.608Z,26.27
2023-04-27T01:25:30.613Z,26.26
2023-04-27T01:26:30.618Z,26.24
2023-04-27T01:27:30.797Z,26.26
2023-04-27T01:28:30.654Z,26.27
2023-04-27T01:29:30.689Z,26.29
2023-04-27T01:30:30.777Z,26.30
2023-04-27T01:31:30.876Z,26.26
2023-04-27T01:32:31.443Z,26.26
2023-04-27T01:33:30.776Z,26.27
2023-04-27T01:34:30.821Z,26.29
2023-04-27T01:35:30.821Z,26.26
2023-04-27T01:36:30.866Z,26.26
2023-04-27T01:37:30.878Z,26.27
2023-04-27T01:38:30.886Z,26.26
2023-04-27T01:39:30.889Z,26.26
2023-04-27T01:40:30.926Z,26.29
2023-04-27T01:41:30.912Z,26.27
2023-04-27T01:42:30.920Z,26.27
2023-04-27T01:43:31.028Z,26.27
2023-04-27T01:44:31.030Z,26.27
2023-04-27T01:45:30.997Z,26.27
2023-04-27T01:46:31.080Z,26.27
2023-04-27T01:47:31.125Z,26.29
2023-04-27T01:48:31.082Z,26.27
2023-04-27T01:49:31.105Z,26.27
2023-04-27T01:50:31.164Z,26.27
2023-04-27T01:51:31.197Z,26.26
2023-04-27T01:52:31.158Z,26.26
2023-04-27T01:53:31.171Z,26.27
2023-04-27T01:54:31.207Z,26.26
2023-04-27T01:55:31.265Z,26.27
2023-04-27T01:56:31.258Z,26.27
2023-04-27T01:57:31.253Z,26.29
2023-04-27T01:58:31.273Z,26.26
2023-04-27T01:59:31.284Z,26.26
2023-04-27T02:00:31.317Z,26.27
2023-04-27T02:01:31.461Z,26.27
2023-04-27T02:02:31.485Z,26.26
2023-04-27T02:03:31.630Z,26.29
2023-04-27T02:04:31.486Z,26.29
2023-04-27T02:05:31.486Z,26.27
2023-04-27T02:06:31.474Z,26.27
2023-04-27T02:07:31.498Z,26.26
2023-04-27T02:08:31.564Z,26.29
2023-04-27T02:09:31.614Z,26.29
2023-04-27T02:10:31.649Z,26.30
2023-04-27T02:11:31.674Z,26.27
2023-04-27T02:12:31.682Z,26.29
2023-04-27T02:13:31.707Z,26.30
2023-04-27T02:14:31.754Z,26.31
2023-04-27T02:15:31.785Z,26.29
2023-04-27T02:16:31.861Z,26.33
2023-04-27T02:17:31.997Z,26.29
2023-04-27T02:18:31.931Z,26.31
2023-04-27T02:19:31.972Z,26.31
2023-04-27T02:20:31.998Z,26.31
2023-04-27T02:21:32.008Z,26.29
2023-04-27T02:22:32.076Z,26.31
2023-04-27T02:23:32.165Z,26.31
2023-04-27T02:24:32.164Z,26.31
2023-04-27T02:25:32.241Z,26.30
2023-04-27T02:26:32.219Z,26.30
2023-04-27T02:27:32.273Z,26.31
2023-04-27T02:28:32.366Z,26.31
2023-04-27T02:29:32.345Z,26.33
2023-04-27T02:30:32.428Z,26.33
2023-04-27T02:31:32.587Z,26.31
2023-04-27T02:32:32.532Z,26.30
2023-04-27T02:33:32.539Z,26.31
2023-04-27T02:34:32.539Z,26.31
2023-04-27T02:35:33.306Z,26.33
2023-04-27T02:36:32.627Z,26.33
2023-04-27T02:37:32.675Z,26.31
2023-04-27T02:38:32.681Z,26.31
2023-04-27T02:39:32.756Z,26.34
2023-04-27T02:40:32.783Z,26.33
2023-04-27T02:41:32.859Z,26.33
2023-04-27T02:42:32.892Z,26.31
2023-04-27T02:43:32.930Z,26.33
2023-04-27T02:44:33.006Z,26.34
2023-04-27T02:45:33.034Z,26.34
2023-04-27T02:46:33.114Z,26.33
2023-04-27T02:47:33.168Z,26.33
2023-04-27T02:48:33.177Z,26.34
2023-04-27T02:49:33.197Z,26.36
2023-04-27T02:50:33.228Z,26.34
2023-04-27T02:51:33.281Z,26.33
2023-04-27T02:52:33.308Z,26.33
2023-04-27T02:53:33.408Z,26.34
2023-04-27T02:54:33.437Z,26.34
2023-04-27T02:55:33.446Z,26.34
2023-04-27T02:56:33.468Z,26.36
2023-04-27T02:57:33.496Z,26.34
2023-04-27T02:58:33.553Z,26.36
2023-04-27T02:59:33.552Z,26.36
2023-04-27T03:00:33.603Z,26.34
2023-04-27T03:01:33.669Z,26.33
2023-04-27T03:02:33.796Z,26.36
2023-04-27T03:03:33.846Z,26.33
2023-04-27T03:04:33.762Z,26.33
2023-04-27T03:05:33.862Z,26.34
2023-04-27T03:06:33.853Z,26.34
2023-04-27T03:07:33.901Z,26.36
2023-04-27T03:08:33.933Z,26.33
2023-04-27T03:09:33.945Z,26.34
2023-04-27T03:10:33.992Z,26.34
2023-04-27T03:11:35.309Z,26.33
2023-04-27T03:12:34.083Z,26.33
2023-04-27T03:13:34.113Z,26.36
2023-04-27T03:14:34.168Z,26.33
2023-04-27T03:15:34.207Z,26.31
2023-04-27T03:16:34.298Z,26.36
2023-04-27T03:17:34.276Z,26.33
2023-04-27T03:18:34.312Z,26.34
2023-04-27T03:19:34.356Z,26.33
2023-04-27T03:20:34.422Z,26.34
2023-04-27T03:21:34.503Z,26.33
2023-04-27T03:22:34.507Z,26.33
2023-04-27T03:23:34.513Z,26.33
2023-04-27T03:24:34.539Z,26.33
2023-04-27T03:25:34.651Z,26.31
2023-04-27T03:26:34.616Z,26.33
2023-04-27T03:27:34.682Z,26.30
2023-04-27T03:28:34.720Z,26.34
2023-04-27T03:29:34.763Z,26.33
2023-04-27T03:30:34.789Z,26.33
2023-04-27T03:31:34.868Z,26.33
2023-04-27T03:32:34.886Z,26.33
2023-04-27T03:33:34.923Z,26.34
2023-04-27T03:34:34.973Z,26.33
2023-04-27T03:35:34.979Z,26.33
2023-04-27T03:36:34.986Z,26.34
2023-04-27T03:37:35.047Z,26.33
2023-04-27T03:38:35.085Z,26.34
2023-04-27T03:39:35.140Z,26.33
2023-04-27T03:40:35.171Z,26.33
2023-04-27T03:41:35.232Z,26.34
2023-04-27T03:42:35.247Z,26.34
2023-04-27T03:43:35.287Z,26.34
2023-04-27T03:44:35.329Z,26.34
2023-04-27T03:45:35.474Z,26.31
2023-04-27T03:46:35.493Z,26.33
2023-04-27T03:47:35.578Z,26.31
2023-04-27T03:48:35.574Z,26.30
2023-04-27T03:49:35.567Z,26.36
2023-04-27T03:50:35.667Z,26.33
2023-04-27T03:51:35.652Z,26.34
2023-04-27T03:52:35.748Z,26.34
2023-04-27T03:53:35.775Z,26.36
2023-04-27T03:54:35.877Z,26.37
2023-04-27T03:55:35.852Z,26.36
2023-04-27T03:56:35.867Z,26.37
2023-04-27T03:57:35.998Z,26.39
2023-04-27T03:58:36.001Z,26.36
2023-04-27T03:59:36.089Z,26.39
2023-04-27T04:00:36.107Z,26.39
2023-04-27T04:01:36.148Z,26.37
2023-04-27T04:02:36.334Z,26.36
2023-04-27T04:03:36.311Z,26.40
2023-04-27T04:04:36.503Z,26.39
2023-04-27T04:05:36.347Z,26.37
2023-04-27T04:06:36.439Z,26.39
2023-04-27T04:07:36.492Z,26.39
2023-04-27T04:08:36.497Z,26.39
2023-04-27T04:09:36.600Z,26.37
2023-04-27T04:10:36.598Z,26.40
2023-04-27T04:11:36.643Z,26.37
2023-04-27T04:12:36.676Z,26.39
2023-04-27T04:13:36.778Z,26.39
2023-04-27T04:14:36.812Z,26.37
2023-04-27T04:15:37.389Z,26.37
2023-04-27T04:16:36.912Z,26.39
2023-04-27T04:17:36.970Z,26.36
2023-04-27T04:18:37.018Z,26.39
2023-04-27T04:19:37.067Z,26.39
2023-04-27T04:20:37.097Z,26.37
2023-04-27T04:21:37.157Z,26.40
2023-04-27T04:22:37.224Z,26.40
2023-04-27T04:23:37.253Z,26.39
2023-04-27T04:24:37.306Z,26.37
2023-04-27T04:25:37.335Z,26.37
2023-04-27T04:26:37.410Z,26.37
2023-04-27T04:27:37.474Z,26.40
2023-04-27T04:28:37.487Z,26.40
2023-04-27T04:29:37.560Z,26.39
2023-04-27T04:30:37.581Z,26.39
2023-04-27T04:31:37.727Z,26.39
2023-04-27T04:32:37.901Z,26.39
2023-04-27T04:33:37.739Z,26.39
2023-04-27T04:34:37.806Z,26.37
2023-04-27T04:35:37.830Z,26.39
2023-04-27T04:36:37.900Z,26.39
2023-04-27T04:37:37.979Z,26.37
2023-04-27T04:38:37.984Z,26.41
2023-04-27T04:39:38.047Z,26.39
2023-04-27T04:40:38.082Z,26.39
2023-04-27T04:41:38.150Z,26.37
2023-04-27T04:42:38.326Z,26.39
2023-04-27T04:43:38.233Z,26.39
2023-04-27T04:44:38.288Z,26.41
2023-04-27T04:45:38.426Z,26.41
2023-04-27T04:46:38.425Z,26.39
2023-04-27T04:47:38.477Z,26.41
2023-04-27T04:48:38.474Z,26.41
2023-04-27T04:49:38.614Z,26.41
2023-04-27T04:50:38.620Z,26.43
2023-04-27T04:51:38.641Z,26.41
2023-04-27T04:52:38.690Z,26.41
2023-04-27T04:53:38.776Z,26.41
2023-04-27T04:54:38.774Z,26.41
2023-04-27T04:55:38.861Z,26.40
2023-04-27T04:56:38.897Z,26.41
2023-04-27T04:57:38.963Z,26.40
2023-04-27T04:58:39.021Z,26.40
2023-04-27T04:59:39.130Z,26.41
2023-04-27T05:00:39.109Z,26.41
2023-04-27T05:01:39.172Z,26.40
2023-04-27T05:02:39.349Z,26.41
2023-04-27T05:03:39.362Z,26.41
2023-04-27T05:04:39.437Z,26.43
2023-04-27T05:05:39.334Z,26.40
2023-04-27T05:06:39.394Z,26.41
2023-04-27T05:07:39.457Z,26.41
2023-04-27T05:08:39.529Z,26.40
2023-04-27T05:09:39.528Z,26.43
2023-04-27T05:10:39.601Z,26.43
2023-04-27T05:11:39.809Z,26.40
2023-04-27T05:12:39.678Z,26.40
2023-04-27T05:13:39.759Z,26.40
2023-04-27T05:14:39.762Z,26.41
2023-04-27T05:15:39.907Z,26.41
2023-04-27T05:16:40.007Z,26.40
2023-04-27T05:17:40.018Z,26.40
2023-04-27T05:18:40.023Z,26.40
2023-04-27T05:19:40.031Z,26.40
2023-04-27T05:20:40.062Z,26.43
2023-04-27T05:21:40.091Z,26.44
2023-04-27T05:22:40.126Z,26.39
2023-04-27T05:23:40.255Z,26.40
2023-04-27T05:24:40.238Z,26.40
2023-04-27T05:25:40.334Z,26.41
2023-04-27T05:26:40.366Z,26.40
2023-04-27T05:27:40.433Z,26.40
2023-04-27T05:28:40.505Z,26.40
2023-04-27T05:29:40.513Z,26.41
2023-04-27T05:30:40.592Z,26.40
2023-04-27T05:31:40.767Z,26.40
2023-04-27T05:32:42.419Z,26.40
2023-04-27T05:33:40.750Z,26.40
2023-04-27T05:34:41.050Z,26.40
2023-04-27T05:35:40.828Z,26.40
2023-04-27T05:36:40.863Z,26.40
2023-04-27T05:37:40.979Z,26.40
2023-04-27T05:38:40.938Z,26.41
2023-04-27T05:39:41.005Z,26.37
2023-04-27T05:40:41.030Z,26.40
2023-04-27T05:41:41.045Z,26.39
2023-04-27T05:42:41.376Z,26.40
2023-04-27T05:43:41.321Z,26.44
2023-04-27T05:44:41.164Z,26.47
2023-04-27T05:45:41.246Z,26.48
2023-04-27T05:46:41.253Z,26.52
2023-04-27T05:47:41.438Z,26.48
2023-04-27T05:48:41.328Z,26.60
2023-04-27T05:49:42.382Z,26.62
2023-04-27T05:50:41.431Z,26.65
2023-04-27T05:51:41.445Z,26.71
2023-04-27T05:52:41.916Z,26.73
2023-04-27T05:53:41.542Z,26.78
2023-04-27T05:54:42.456Z,26.84
2023-04-27T05:55:41.571Z,26.88
2023-04-27T05:56:41.549Z,26.94
2023-04-27T05:57:41.627Z,26.97
2023-04-27T05:58:41.703Z,27.01
2023-04-27T05:59:42.424Z,27.02
2023-04-27T06:00:41.923Z,27.08
2023-04-27T06:01:41.906Z,27.12
2023-04-27T06:02:41.944Z,27.16
2023-04-27T06:03:41.857Z,27.19
2023-04-27T06:04:41.773Z,27.22
2023-04-27T06:05:41.868Z,27.22
2023-04-27T06:06:41.854Z,27.24
2023-04-27T06:07:41.834Z,27.25
2023-04-27T06:08:42.120Z,27.26
2023-04-27T06:09:41.831Z,27.26
2023-04-27T06:10:43.434Z,27.29
2023-04-27T06:11:41.858Z,27.28
2023-04-27T06:12:42.748Z,27.33
2023-04-27T06:13:41.825Z,27.33
2023-04-27T06:14:41.881Z,27.33
2023-04-27T06:15:41.932Z,27.36
2023-04-27T06:16:41.900Z,27.38
2023-04-27T06:17:41.945Z,27.39
2023-04-27T06:18:42.030Z,27.42
2023-04-27T06:19:41.936Z,27.43
2023-04-27T06:20:41.986Z,27.45
2023-04-27T06:21:41.917Z,27.48
2023-04-27T06:22:41.995Z,27.45
2023-04-27T06:23:41.976Z,27.46
2023-04-27T06:24:42.006Z,27.46
2023-04-27T06:25:42.047Z,27.50
2023-04-27T06:26:42.200Z,27.49
2023-04-27T06:27:42.248Z,27.50
2023-04-27T06:28:42.453Z,27.54
2023-04-27T06:29:42.308Z,27.53
2023-04-27T06:30:42.287Z,27.56
2023-04-27T06:31:42.363Z,27.56
2023-04-27T06:32:42.452Z,27.59
2023-04-27T06:33:42.397Z,27.59
2023-04-27T06:34:42.489Z,27.63
2023-04-27T06:35:43.249Z,27.67
2023-04-27T06:36:42.499Z,27.70
2023-04-27T06:37:42.610Z,27.71
2023-04-27T06:38:42.592Z,27.73
2023-04-27T06:39:42.701Z,27.73
2023-04-27T06:40:42.679Z,27.73
2023-04-27T06:41:42.745Z,27.71
2023-04-27T06:42:42.915Z,27.71
2023-04-27T06:43:42.852Z,27.69
2023-04-27T06:44:42.880Z,27.70
2023-04-27T06:45:43.032Z,27.66
2023-04-27T06:46:43.056Z,27.66
2023-04-27T06:47:43.902Z,27.67
2023-04-27T06:48:43.033Z,27.61
2023-04-27T06:49:43.062Z,27.60
2023-04-27T06:50:43.694Z,27.57
2023-04-27T06:51:43.145Z,27.54
2023-04-27T06:52:43.249Z,27.54
2023-04-27T06:53:43.898Z,27.52
2023-04-27T06:54:43.245Z,27.50
2023-04-27T06:55:45.030Z,27.48
2023-04-27T06:56:43.296Z,27.48
2023-04-27T06:57:43.313Z,27.49
2023-04-27T06:58:43.286Z,27.43
2023-04-27T06:59:43.285Z,27.45
2023-04-27T07:00:43.260Z,27.43
2023-04-27T07:01:43.285Z,27.42
2023-04-27T07:02:43.341Z,27.40
2023-04-27T07:03:43.398Z,27.38
2023-04-27T07:04:43.268Z,27.39
2023-04-27T07:05:43.196Z,27.36
2023-04-27T07:06:43.185Z,27.35
2023-04-27T07:07:43.212Z,27.33
2023-04-27T07:08:43.213Z,27.33
2023-04-27T07:09:43.180Z,27.30
2023-04-27T07:10:43.387Z,27.32
2023-04-27T07:11:43.231Z,27.30
2023-04-27T07:12:43.177Z,27.29
2023-04-27T07:13:43.151Z,27.28
2023-04-27T07:14:43.177Z,27.26
2023-04-27T07:15:43.513Z,27.24
2023-04-27T07:16:43.208Z,27.19
2023-04-27T07:17:43.148Z,27.12
2023-04-27T07:18:43.725Z,27.08
2023-04-27T07:19:43.119Z,26.99
2023-04-27T07:20:43.166Z,26.91
2023-04-27T07:21:43.137Z,26.80
2023-04-27T07:22:43.129Z,26.74
2023-04-27T07:23:43.099Z,26.68
2023-04-27T07:24:43.341Z,26.60
2023-04-27T07:25:43.128Z,26.52
2023-04-27T07:26:43.085Z,26.47
2023-04-27T07:27:43.159Z,26.44
2023-04-27T07:28:43.080Z,26.41
2023-04-27T07:29:43.193Z,26.43
2023-04-27T07:30:43.084Z,26.43
2023-04-27T07:31:43.150Z,26.44
2023-04-27T07:32:43.126Z,26.46
2023-04-27T07:33:43.057Z,26.50
2023-04-27T07:34:52.592Z,26.54
2023-04-27T07:35:44.425Z,26.57
2023-04-27T07:36:43.020Z,26.60
2023-04-27T07:37:43.031Z,26.64
2023-04-27T07:38:43.423Z,26.68
2023-04-27T07:39:43.038Z,26.74
2023-04-27T07:40:44.767Z,26.77
2023-04-27T07:41:43.026Z,26.84
2023-04-27T07:42:42.977Z,26.88
2023-04-27T07:43:42.972Z,26.92
2023-04-27T07:44:43.022Z,26.95
2023-04-27T07:45:43.030Z,27.01
2023-04-27T07:46:43.430Z,27.02
2023-04-27T07:47:43.103Z,27.05
2023-04-27T07:48:43.480Z,27.06
2023-04-27T07:49:43.005Z,27.06
2023-04-27T07:50:43.595Z,27.08
2023-04-27T07:51:43.033Z,27.08
2023-04-27T07:52:43.067Z,27.09
2023-04-27T07:53:43.088Z,27.12
2023-04-27T07:54:43.096Z,27.12
2023-04-27T07:55:43.581Z,27.12
2023-04-27T07:56:43.152Z,27.11
2023-04-27T07:57:43.152Z,27.13
2023-04-27T07:58:43.257Z,27.12
2023-04-27T07:59:43.239Z,27.12
2023-04-27T08:00:43.214Z,27.13
2023-04-27T08:01:43.308Z,27.11
2023-04-27T08:02:43.531Z,27.12
2023-04-27T08:03:44.103Z,27.12
2023-04-27T08:04:43.622Z,27.12
2023-04-27T08:05:43.751Z,27.11
2023-04-27T08:06:43.608Z,27.09
2023-04-27T08:07:44.722Z,27.09
2023-04-27T08:08:43.515Z,27.08
2023-04-27T08:09:43.451Z,27.11
2023-04-27T08:10:43.511Z,27.11
2023-04-27T08:11:43.496Z,27.09
2023-04-27T08:12:43.527Z,27.09
2023-04-27T08:13:43.536Z,27.08
2023-04-27T08:14:43.582Z,27.06
2023-04-27T08:15:43.584Z,27.08
2023-04-27T08:16:43.705Z,27.09
2023-04-27T08:17:43.648Z,27.08
2023-04-27T08:18:43.643Z,27.08
2023-04-27T08:19:43.673Z,27.09
2023-04-27T08:20:43.716Z,27.06
2023-04-27T08:21:43.762Z,27.08
2023-04-27T08:22:43.791Z,27.08
2023-04-27T08:23:44.043Z,27.05
2023-04-27T08:24:43.865Z,27.08
2023-04-27T08:25:43.835Z,27.02
2023-04-27T08:26:43.829Z,27.05
2023-04-27T08:27:43.933Z,27.06
2023-04-27T08:28:43.903Z,27.06
2023-04-27T08:29:43.929Z,27.06
2023-04-27T08:30:43.952Z,27.06
2023-04-27T08:31:45.057Z,27.06
2023-04-27T08:32:44.090Z,27.08
2023-04-27T08:33:44.031Z,27.08
2023-04-27T08:34:44.201Z,27.09
2023-04-27T08:35:45.081Z,27.08
2023-04-27T08:36:44.097Z,27.12
2023-04-27T08:37:44.180Z,27.11
2023-04-27T08:38:44.136Z,27.11
2023-04-27T08:39:44.176Z,27.08
2023-04-27T08:40:44.209Z,27.08
2023-04-27T08:41:44.246Z,27.06
2023-04-27T08:42:44.223Z,27.06
2023-04-27T08:43:44.364Z,27.02
2023-04-27T08:44:44.287Z,27.03
2023-04-27T08:45:44.333Z,27.02
2023-04-27T08:46:44.498Z,27.01
2023-04-27T08:47:44.496Z,27.02
2023-04-27T08:48:44.460Z,26.99
2023-04-27T08:49:44.517Z,26.97
2023-04-27T08:50:44.500Z,26.97
2023-04-27T08:51:44.613Z,26.95
2023-04-27T08:52:44.595Z,26.94
2023-04-27T08:53:44.608Z,26.91
2023-04-27T08:54:44.672Z,26.90
2023-04-27T08:55:44.698Z,26.90
2023-04-27T08:56:44.736Z,26.88
2023-04-27T08:57:44.783Z,26.87
2023-04-27T08:58:45.061Z,26.85
2023-04-27T08:59:44.862Z,26.82
2023-04-27T09:00:44.912Z,26.85
2023-04-27T09:01:45.081Z,26.82
2023-04-27T09:02:45.115Z,26.81
2023-04-27T09:03:45.236Z,26.77
2023-04-27T09:04:45.175Z,26.81
2023-04-27T09:06:00.164Z,26.78
2023-04-27T09:06:46.986Z,26.77
2023-04-27T09:07:45.150Z,26.77
2023-04-27T09:08:45.190Z,26.75
2023-04-27T09:09:45.139Z,26.74
2023-04-27T09:10:45.134Z,26.73
2023-04-27T09:11:45.111Z,26.74
2023-04-27T09:12:45.280Z,26.74
2023-04-27T09:13:45.120Z,26.70
2023-04-27T09:14:45.175Z,26.70
2023-04-27T09:15:47.772Z,26.70
2023-04-27T09:16:45.330Z,26.68
2023-04-27T09:17:45.215Z,26.70
2023-04-27T09:18:45.196Z,26.70
2023-04-27T09:19:45.979Z,26.70
2023-04-27T09:20:45.194Z,26.67
2023-04-27T09:21:47.316Z,26.68
2023-04-27T09:22:45.417Z,26.68
2023-04-27T09:23:45.463Z,26.67
2023-04-27T09:24:45.429Z,26.67
2023-04-27T09:25:45.506Z,26.68
2023-04-27T09:26:45.502Z,26.68
2023-04-27T09:27:45.549Z,26.71
2023-04-27T09:28:45.612Z,26.65
2023-04-27T09:29:45.674Z,26.67
2023-04-27T09:30:45.713Z,26.67
2023-04-27T09:31:46.005Z,26.62
2023-04-27T09:32:45.997Z,26.61
2023-04-27T09:33:45.882Z,26.58
2023-04-27T09:34:45.903Z,26.47
2023-04-27T09:35:45.961Z,26.50
2023-04-27T09:36:45.974Z,26.54
2023-04-27T09:37:46.131Z,26.58
2023-04-27T09:38:46.235Z,26.60
2023-04-27T09:39:46.134Z,26.64
2023-04-27T09:40:46.138Z,26.67
2023-04-27T09:41:46.193Z,26.68
2023-04-27T09:42:46.248Z,26.71
2023-04-27T09:43:47.010Z,26.74
2023-04-27T09:44:46.294Z,26.74
2023-04-27T09:45:46.423Z,26.78
2023-04-27T09:46:46.388Z,26.81
2023-04-27T09:47:46.449Z,26.84
2023-04-27T09:48:46.420Z,26.88
2023-04-27T09:49:46.430Z,26.91
2023-04-27T09:50:46.466Z,26.94
2023-04-27T09:51:46.484Z,26.97
2023-04-27T09:52:46.541Z,26.99
2023-04-27T09:53:46.539Z,27.05
2023-04-27T09:54:46.569Z,27.09
2023-04-27T09:55:46.580Z,27.11
2023-04-27T09:56:46.594Z,27.11
2023-04-27T09:57:46.658Z,27.16
2023-04-27T09:58:46.609Z,27.18
2023-04-27T09:59:46.635Z,27.22
2023-04-27T10:00:46.674Z,27.25
2023-04-27T10:01:46.753Z,27.29
2023-04-27T10:02:53.115Z,27.30
2023-04-27T10:03:48.575Z,27.30
2023-04-27T10:04:46.702Z,27.33
2023-04-27T10:05:46.690Z,27.33
2023-04-27T10:06:46.698Z,27.38
2023-04-27T10:07:46.668Z,27.38
2023-04-27T10:08:46.672Z,27.38
2023-04-27T10:09:46.653Z,27.45
2023-04-27T10:10:46.641Z,27.46
2023-04-27T10:11:46.655Z,27.48
2023-04-27T10:12:46.637Z,27.53
2023-04-27T10:13:46.632Z,27.52
2023-04-27T10:14:46.688Z,27.54
2023-04-27T10:15:46.733Z,27.57
2023-04-27T10:16:46.963Z,27.57
2023-04-27T10:17:46.881Z,27.57
2023-04-27T10:18:46.867Z,27.59
2023-04-27T10:19:46.901Z,27.60
2023-04-27T10:20:47.060Z,27.61
2023-04-27T10:21:47.001Z,27.66
2023-04-27T10:22:47.042Z,27.64
2023-04-27T10:23:47.082Z,27.66
2023-04-27T10:24:47.182Z,27.69
2023-04-27T10:25:47.157Z,27.69
2023-04-27T10:26:47.247Z,27.69
2023-04-27T10:27:47.241Z,27.73
2023-04-27T10:28:47.346Z,27.71
2023-04-27T10:29:47.601Z,27.73
2023-04-27T10:30:47.605Z,27.69
2023-04-27T10:31:47.416Z,27.63
2023-04-27T10:32:48.048Z,27.59
2023-04-27T10:33:47.496Z,27.53
2023-04-27T10:34:48.035Z,27.49
2023-04-27T10:35:47.539Z,27.49
2023-04-27T10:36:47.569Z,27.45
2023-04-27T10:37:47.631Z,27.45
2023-04-27T10:38:47.678Z,27.45
2023-04-27T10:39:49.850Z,27.49
2023-04-27T10:40:47.690Z,27.48
2023-04-27T10:41:48.008Z,27.49
2023-04-27T10:42:47.620Z,27.50
2023-04-27T10:43:48.519Z,27.54
2023-04-27T10:44:47.608Z,27.57
2023-04-27T10:45:47.601Z,27.57
2023-04-27T10:46:47.600Z,27.59
2023-04-27T10:47:47.644Z,27.61
2023-04-27T10:48:47.579Z,27.64
2023-04-27T10:49:47.631Z,27.67
2023-04-27T10:50:47.614Z,27.71
2023-04-27T10:51:47.596Z,27.71
2023-04-27T10:52:47.621Z,27.70
2023-04-27T10:53:47.636Z,27.71
2023-04-27T10:54:47.545Z,27.74
2023-04-27T10:55:47.559Z,27.74
2023-04-27T10:56:47.535Z,27.74
2023-04-27T10:57:47.525Z,27.73
2023-04-27T10:58:49.398Z,27.74
2023-04-27T10:59:47.531Z,27.74
2023-04-27T11:00:47.499Z,27.73
2023-04-27T11:01:47.710Z,27.74
2023-04-27T11:02:47.589Z,27.73
2023-04-27T11:03:47.573Z,27.74
2023-04-27T11:04:47.561Z,27.71
2023-04-27T11:05:47.555Z,27.73
2023-04-27T11:06:47.614Z,27.69
2023-04-27T11:07:47.630Z,27.69
2023-04-27T11:08:47.716Z,27.69
2023-04-27T11:09:47.722Z,27.70
2023-04-27T11:10:48.031Z,27.66
2023-04-27T11:11:47.800Z,27.66
2023-04-27T11:12:47.839Z,27.60
2023-04-27T11:13:47.984Z,27.61
2023-04-27T11:14:47.913Z,27.56
2023-04-27T11:15:47.965Z,27.59
2023-04-27T11:16:48.028Z,27.60
2023-04-27T11:17:48.026Z,27.59
2023-04-27T11:18:48.050Z,27.60
2023-04-27T11:19:48.220Z,27.59
2023-04-27T11:20:48.141Z,27.60
2023-04-27T11:21:48.571Z,27.60
2023-04-27T11:22:48.206Z,27.61
2023-04-27T11:23:48.243Z,27.57
2023-04-27T11:24:48.558Z,27.57
2023-04-27T11:25:48.311Z,27.60
2023-04-27T11:26:48.551Z,27.60
2023-04-27T11:27:48.412Z,27.59
2023-04-27T11:28:48.428Z,27.57
2023-04-27T11:29:48.553Z,27.57
2023-04-27T11:30:48.530Z,27.60
2023-04-27T11:31:49.244Z,27.59
2023-04-27T11:32:48.687Z,27.59
2023-04-27T11:33:48.682Z,27.60
2023-04-27T11:34:48.755Z,27.60
2023-04-27T11:35:48.756Z,27.61
2023-04-27T11:36:49.048Z,27.63
2023-04-27T11:37:48.850Z,27.64
2023-04-27T11:38:48.933Z,27.63
2023-04-27T11:39:48.994Z,27.64
2023-04-27T11:40:49.010Z,27.61
2023-04-27T11:41:49.099Z,27.63
2023-04-27T11:42:49.146Z,27.64
2023-04-27T11:43:49.386Z,27.63
2023-04-27T11:44:49.237Z,27.61
2023-04-27T11:45:49.302Z,27.63
2023-04-27T11:46:49.450Z,27.64
2023-04-27T11:47:49.434Z,27.64
2023-04-27T11:48:49.436Z,27.63
2023-04-27T11:49:49.492Z,27.66
2023-04-27T11:50:49.543Z,27.64
2023-04-27T11:51:49.597Z,27.63
2023-04-27T11:52:49.653Z,27.63
2023-04-27T11:53:49.739Z,27.61
2023-04-27T11:54:49.731Z,27.63
2023-04-27T11:55:49.797Z,27.61
2023-04-27T11:56:49.841Z,27.60
2023-04-27T11:57:49.927Z,27.61
2023-04-27T11:58:49.965Z,27.59
2023-04-27T11:59:50.042Z,27.60
2023-04-27T12:00:50.052Z,27.59
2023-04-27T12:01:50.101Z,27.57
2023-04-27T12:02:50.226Z,27.60
2023-04-27T12:03:50.380Z,27.59
2023-04-27T12:04:50.485Z,27.57
2023-04-27T12:05:50.366Z,27.56
2023-04-27T12:06:50.320Z,27.56
2023-04-27T12:07:50.432Z,27.56
2023-04-27T12:08:50.398Z,27.54
2023-04-27T12:09:50.450Z,27.52
2023-04-27T12:10:50.486Z,27.53
2023-04-27T12:11:50.519Z,27.54
2023-04-27T12:12:50.532Z,27.54
2023-04-27T12:13:50.626Z,27.53
2023-04-27T12:14:50.629Z,27.52
2023-04-27T12:15:50.640Z,27.53
2023-04-27T12:16:50.786Z,27.50
2023-04-27T12:17:50.745Z,27.50
2023-04-27T12:18:50.692Z,27.50
2023-04-27T12:19:50.764Z,27.48
2023-04-27T12:20:50.771Z,27.49
2023-04-27T12:21:50.794Z,27.46
2023-04-27T12:22:50.843Z,27.46
2023-04-27T12:23:50.841Z,27.45
2023-04-27T12:24:50.872Z,27.45
2023-04-27T12:25:50.868Z,27.45
2023-04-27T12:26:50.936Z,27.43
2023-04-27T12:27:50.962Z,27.40
2023-04-27T12:28:50.883Z,27.42
2023-04-27T12:29:50.884Z,27.42
2023-04-27T12:30:50.964Z,27.40
2023-04-27T12:31:50.905Z,27.42
2023-04-27T12:32:51.007Z,27.39
2023-04-27T12:33:50.923Z,27.40
2023-04-27T12:34:51.593Z,27.38
2023-04-27T12:35:50.977Z,27.38
2023-04-27T12:36:50.948Z,27.38
2023-04-27T12:37:50.986Z,27.39
2023-04-27T12:38:50.990Z,27.38
2023-04-27T12:39:50.971Z,27.39
2023-04-27T12:40:51.003Z,27.36
2023-04-27T12:41:51.068Z,27.33
2023-04-27T12:42:51.181Z,27.36
2023-04-27T12:43:51.056Z,27.33
2023-04-27T12:44:51.124Z,27.30
2023-04-27T12:45:51.235Z,27.32
2023-04-27T12:46:51.698Z,27.30
2023-04-27T12:48:01.614Z,27.32
2023-04-27T12:48:53.146Z,27.30
2023-04-27T12:49:51.578Z,27.30
2023-04-27T12:50:51.172Z,27.29
2023-04-27T12:51:51.207Z,27.29
2023-04-27T12:52:51.158Z,27.28